sensor_id;sensor_type;location;lat;lon;timestamp;P1;durP1;ratioP1;P2;durP2;ratioP2
10727;SDS011;5415;59.322;18.246;2023-01-26T00:02:02;8.30;;;6.13;;
10727;SDS011;5415;59.322;18.246;2023-01-26T00:04:30;5.53;;;5.03;;
10727;SDS011;5415;59.322;18.246;2023-01-26T00:06:59;6.03;;;5.43;;
10727;SDS011;5415;59.322;18.246;2023-01-26T00:09:27;7.27;;;5.50;;
10727;SDS011;5415;59.322;18.246;2023-01-26T00:11:54;6.80;;;5.80;;
10727;SDS011;5415;59.322;18.246;2023-01-26T00:14:22;5.87;;;5.13;;
10727;SDS011;5415;59.322;18.246;2023-01-26T00:16:55;7.30;;;5.97;;
10727;SDS011;5415;59.322;18.246;2023-01-26T00:19:22;6.63;;;5.60;;
10727;SDS011;5415;59.322;18.246;2023-01-26T00:21:50;7.43;;;6.40;;
10727;SDS011;5415;59.322;18.246;2023-01-26T00:24:17;8.07;;;5.73;;
10727;SDS011;5415;59.322;18.246;2023-01-26T00:26:46;9.53;;;6.53;;
10727;SDS011;5415;59.322;18.246;2023-01-26T00:29:16;7.17;;;5.53;;
10727;SDS011;5415;59.322;18.246;2023-01-26T00:31:44;6.27;;;5.67;;
10727;SDS011;5415;59.322;18.246;2023-01-26T00:34:16;6.87;;;5.63;;
10727;SDS011;5415;59.322;18.246;2023-01-26T00:36:46;6.37;;;5.40;;
10727;SDS011;5415;59.322;18.246;2023-01-26T00:39:13;6.30;;;5.70;;
10727;SDS011;5415;59.322;18.246;2023-01-26T00:41:42;8.03;;;5.90;;
10727;SDS011;5415;59.322;18.246;2023-01-26T00:44:26;7.03;;;5.47;;
10727;SDS011;5415;59.322;18.246;2023-01-26T00:46:53;8.10;;;6.10;;
10727;SDS011;5415;59.322;18.246;2023-01-26T00:49:23;8.97;;;5.60;;
10727;SDS011;5415;59.322;18.246;2023-01-26T00:51:50;8.27;;;5.80;;
10727;SDS011;5415;59.322;18.246;2023-01-26T00:54:18;7.23;;;5.20;;
10727;SDS011;5415;59.322;18.246;2023-01-26T00:56:45;8.00;;;5.80;;
10727;SDS011;5415;59.322;18.246;2023-01-26T00:59:13;7.33;;;5.87;;
10727;SDS011;5415;59.322;18.246;2023-01-26T01:01:41;8.60;;;5.87;;
10727;SDS011;5415;59.322;18.246;2023-01-26T01:04:08;6.03;;;5.30;;
10727;SDS011;5415;59.322;18.246;2023-01-26T01:06:37;5.87;;;5.33;;
10727;SDS011;5415;59.322;18.246;2023-01-26T01:09:05;8.27;;;5.20;;
10727;SDS011;5415;59.322;18.246;2023-01-26T01:11:32;5.70;;;5.10;;
10727;SDS011;5415;59.322;18.246;2023-01-26T01:13:59;8.60;;;5.27;;
10727;SDS011;5415;59.322;18.246;2023-01-26T01:16:27;8.03;;;5.40;;
10727;SDS011;5415;59.322;18.246;2023-01-26T01:18:55;8.83;;;5.47;;
10727;SDS011;5415;59.322;18.246;2023-01-26T01:21:23;6.37;;;5.50;;
10727;SDS011;5415;59.322;18.246;2023-01-26T01:23:52;7.13;;;5.87;;
10727;SDS011;5415;59.322;18.246;2023-01-26T01:26:19;10.10;;;5.90;;
10727;SDS011;5415;59.322;18.246;2023-01-26T01:28:46;7.97;;;5.60;;
10727;SDS011;5415;59.322;18.246;2023-01-26T01:31:15;11.63;;;6.03;;
10727;SDS011;5415;59.322;18.246;2023-01-26T01:33:43;11.03;;;5.47;;
10727;SDS011;5415;59.322;18.246;2023-01-26T01:36:11;14.17;;;6.13;;
10727;SDS011;5415;59.322;18.246;2023-01-26T01:38:40;6.67;;;5.73;;
10727;SDS011;5415;59.322;18.246;2023-01-26T01:41:10;9.40;;;6.10;;
10727;SDS011;5415;59.322;18.246;2023-01-26T01:43:38;7.77;;;6.03;;
10727;SDS011;5415;59.322;18.246;2023-01-26T01:46:06;7.17;;;5.97;;
10727;SDS011;5415;59.322;18.246;2023-01-26T01:48:43;10.30;;;6.60;;
10727;SDS011;5415;59.322;18.246;2023-01-26T01:51:17;9.70;;;6.30;;
10727;SDS011;5415;59.322;18.246;2023-01-26T01:53:57;9.07;;;6.27;;
10727;SDS011;5415;59.322;18.246;2023-01-26T01:56:30;9.23;;;6.73;;
10727;SDS011;5415;59.322;18.246;2023-01-26T01:58:59;11.47;;;6.00;;
10727;SDS011;5415;59.322;18.246;2023-01-26T02:01:28;13.17;;;6.30;;
10727;SDS011;5415;59.322;18.246;2023-01-26T02:03:57;8.70;;;5.77;;
10727;SDS011;5415;59.322;18.246;2023-01-26T02:06:28;8.67;;;6.47;;
10727;SDS011;5415;59.322;18.246;2023-01-26T02:08:59;34.93;;;7.47;;
10727;SDS011;5415;59.322;18.246;2023-01-26T02:11:27;17.07;;;6.87;;
10727;SDS011;5415;59.322;18.246;2023-01-26T02:13:59;17.80;;;6.90;;
10727;SDS011;5415;59.322;18.246;2023-01-26T02:16:30;14.77;;;7.50;;
10727;SDS011;5415;59.322;18.246;2023-01-26T02:18:58;10.23;;;6.60;;
10727;SDS011;5415;59.322;18.246;2023-01-26T02:21:25;17.07;;;7.13;;
10727;SDS011;5415;59.322;18.246;2023-01-26T02:23:55;10.30;;;6.70;;
10727;SDS011;5415;59.322;18.246;2023-01-26T02:26:34;16.60;;;6.47;;
10727;SDS011;5415;59.322;18.246;2023-01-26T02:29:03;8.77;;;6.40;;
10727;SDS011;5415;59.322;18.246;2023-01-26T02:31:34;8.57;;;6.73;;
10727;SDS011;5415;59.322;18.246;2023-01-26T02:34:02;28.13;;;7.30;;
10727;SDS011;5415;59.322;18.246;2023-01-26T02:36:31;14.20;;;7.03;;
10727;SDS011;5415;59.322;18.246;2023-01-26T02:39:07;19.90;;;7.87;;
10727;SDS011;5415;59.322;18.246;2023-01-26T02:41:47;23.17;;;7.00;;
10727;SDS011;5415;59.322;18.246;2023-01-26T02:44:33;13.47;;;7.70;;
10727;SDS011;5415;59.322;18.246;2023-01-26T02:47:05;15.20;;;7.80;;
10727;SDS011;5415;59.322;18.246;2023-01-26T02:49:37;12.97;;;7.43;;
10727;SDS011;5415;59.322;18.246;2023-01-26T02:52:15;31.87;;;8.33;;
10727;SDS011;5415;59.322;18.246;2023-01-26T02:54:43;26.77;;;8.40;;
10727;SDS011;5415;59.322;18.246;2023-01-26T02:57:29;18.80;;;8.00;;
10727;SDS011;5415;59.322;18.246;2023-01-26T02:59:58;17.07;;;8.20;;
10727;SDS011;5415;59.322;18.246;2023-01-26T03:02:27;14.83;;;8.17;;
10727;SDS011;5415;59.322;18.246;2023-01-26T03:04:55;19.23;;;8.07;;
10727;SDS011;5415;59.322;18.246;2023-01-26T03:07:22;16.57;;;7.70;;
10727;SDS011;5415;59.322;18.246;2023-01-26T03:09:49;11.70;;;7.03;;
10727;SDS011;5415;59.322;18.246;2023-01-26T03:12:17;12.57;;;6.87;;
10727;SDS011;5415;59.322;18.246;2023-01-26T03:14:46;14.87;;;7.77;;
10727;SDS011;5415;59.322;18.246;2023-01-26T03:17:33;19.43;;;8.00;;
10727;SDS011;5415;59.322;18.246;2023-01-26T03:20:01;15.20;;;8.07;;
10727;SDS011;5415;59.322;18.246;2023-01-26T03:22:46;14.17;;;7.80;;
10727;SDS011;5415;59.322;18.246;2023-01-26T03:25:31;20.50;;;7.87;;
10727;SDS011;5415;59.322;18.246;2023-01-26T03:28:15;14.93;;;7.13;;
10727;SDS011;5415;59.322;18.246;2023-01-26T03:30:48;11.03;;;7.03;;
10727;SDS011;5415;59.322;18.246;2023-01-26T03:33:16;17.73;;;7.67;;
10727;SDS011;5415;59.322;18.246;2023-01-26T03:35:44;27.67;;;7.80;;
10727;SDS011;5415;59.322;18.246;2023-01-26T03:38:11;53.27;;;8.50;;
10727;SDS011;5415;59.322;18.246;2023-01-26T03:40:39;24.17;;;8.43;;
10727;SDS011;5415;59.322;18.246;2023-01-26T03:43:24;37.13;;;7.47;;
10727;SDS011;5415;59.322;18.246;2023-01-26T03:46:10;39.27;;;8.23;;
10727;SDS011;5415;59.322;18.246;2023-01-26T03:48:54;36.10;;;7.47;;
10727;SDS011;5415;59.322;18.246;2023-01-26T03:51:39;96.40;;;9.33;;
10727;SDS011;5415;59.322;18.246;2023-01-26T03:54:25;25.20;;;8.63;;
10727;SDS011;5415;59.322;18.246;2023-01-26T03:57:12;25.10;;;7.80;;
10727;SDS011;5415;59.322;18.246;2023-01-26T03:59:39;17.77;;;8.37;;
10727;SDS011;5415;59.322;18.246;2023-01-26T04:02:10;18.67;;;7.70;;
10727;SDS011;5415;59.322;18.246;2023-01-26T04:04:55;19.77;;;8.33;;
10727;SDS011;5415;59.322;18.246;2023-01-26T04:07:40;28.57;;;8.43;;
10727;SDS011;5415;59.322;18.246;2023-01-26T04:10:25;20.13;;;8.70;;
10727;SDS011;5415;59.322;18.246;2023-01-26T04:12:53;21.60;;;8.00;;
10727;SDS011;5415;59.322;18.246;2023-01-26T04:15:37;24.80;;;9.40;;
10727;SDS011;5415;59.322;18.246;2023-01-26T04:18:24;16.43;;;8.43;;
10727;SDS011;5415;59.322;18.246;2023-01-26T04:21:08;22.53;;;9.00;;
10727;SDS011;5415;59.322;18.246;2023-01-26T04:23:55;16.30;;;8.77;;
10727;SDS011;5415;59.322;18.246;2023-01-26T04:26:23;19.87;;;9.20;;
10727;SDS011;5415;59.322;18.246;2023-01-26T04:28:52;17.00;;;9.40;;
10727;SDS011;5415;59.322;18.246;2023-01-26T04:31:19;19.53;;;9.43;;
10727;SDS011;5415;59.322;18.246;2023-01-26T04:33:48;17.90;;;9.30;;
10727;SDS011;5415;59.322;18.246;2023-01-26T04:36:17;23.00;;;12.68;;
10727;SDS011;5415;59.322;18.246;2023-01-26T04:38:45;21.20;;;10.70;;
10727;SDS011;5415;59.322;18.246;2023-01-26T04:41:14;17.43;;;9.70;;
10727;SDS011;5415;59.322;18.246;2023-01-26T04:43:44;19.77;;;8.97;;
10727;SDS011;5415;59.322;18.246;2023-01-26T04:46:12;16.17;;;9.63;;
10727;SDS011;5415;59.322;18.246;2023-01-26T04:48:40;16.20;;;10.07;;
10727;SDS011;5415;59.322;18.246;2023-01-26T04:51:10;20.73;;;9.97;;
10727;SDS011;5415;59.322;18.246;2023-01-26T04:53:40;16.90;;;9.77;;
10727;SDS011;5415;59.322;18.246;2023-01-26T04:56:07;16.10;;;9.70;;
10727;SDS011;5415;59.322;18.246;2023-01-26T04:58:44;20.97;;;9.80;;
10727;SDS011;5415;59.322;18.246;2023-01-26T05:01:12;20.50;;;10.37;;
10727;SDS011;5415;59.322;18.246;2023-01-26T05:03:39;18.63;;;9.73;;
10727;SDS011;5415;59.322;18.246;2023-01-26T05:06:10;15.90;;;9.67;;
10727;SDS011;5415;59.322;18.246;2023-01-26T05:08:37;18.23;;;9.60;;
10727;SDS011;5415;59.322;18.246;2023-01-26T05:11:04;17.90;;;9.63;;
10727;SDS011;5415;59.322;18.246;2023-01-26T05:13:32;13.87;;;9.47;;
10727;SDS011;5415;59.322;18.246;2023-01-26T05:16:00;16.00;;;9.47;;
10727;SDS011;5415;59.322;18.246;2023-01-26T05:18:30;15.30;;;9.63;;
10727;SDS011;5415;59.322;18.246;2023-01-26T05:21:02;14.20;;;9.40;;
10727;SDS011;5415;59.322;18.246;2023-01-26T05:23:39;15.43;;;9.67;;
10727;SDS011;5415;59.322;18.246;2023-01-26T05:26:11;17.07;;;10.47;;
10727;SDS011;5415;59.322;18.246;2023-01-26T05:28:38;16.10;;;9.87;;
10727;SDS011;5415;59.322;18.246;2023-01-26T05:31:05;14.97;;;9.17;;
10727;SDS011;5415;59.322;18.246;2023-01-26T05:33:32;13.60;;;9.03;;
10727;SDS011;5415;59.322;18.246;2023-01-26T05:36:02;14.10;;;8.97;;
10727;SDS011;5415;59.322;18.246;2023-01-26T05:38:35;13.00;;;8.97;;
10727;SDS011;5415;59.322;18.246;2023-01-26T05:41:03;14.67;;;9.47;;
10727;SDS011;5415;59.322;18.246;2023-01-26T05:43:33;15.47;;;10.27;;
10727;SDS011;5415;59.322;18.246;2023-01-26T05:46:08;14.63;;;8.97;;
10727;SDS011;5415;59.322;18.246;2023-01-26T05:48:36;14.87;;;9.40;;
10727;SDS011;5415;59.322;18.246;2023-01-26T05:51:03;12.73;;;8.87;;
10727;SDS011;5415;59.322;18.246;2023-01-26T05:53:32;13.23;;;9.27;;
10727;SDS011;5415;59.322;18.246;2023-01-26T05:56:01;11.67;;;8.07;;
10727;SDS011;5415;59.322;18.246;2023-01-26T05:58:32;11.10;;;8.23;;
10727;SDS011;5415;59.322;18.246;2023-01-26T06:01:08;14.23;;;10.13;;
10727;SDS011;5415;59.322;18.246;2023-01-26T06:03:37;11.33;;;8.53;;
10727;SDS011;5415;59.322;18.246;2023-01-26T06:06:05;13.70;;;8.70;;
10727;SDS011;5415;59.322;18.246;2023-01-26T06:08:34;11.30;;;8.40;;
10727;SDS011;5415;59.322;18.246;2023-01-26T06:11:03;12.90;;;8.13;;
10727;SDS011;5415;59.322;18.246;2023-01-26T06:13:32;10.03;;;7.73;;
10727;SDS011;5415;59.322;18.246;2023-01-26T06:16:01;11.23;;;8.30;;
10727;SDS011;5415;59.322;18.246;2023-01-26T06:18:38;12.97;;;7.93;;
10727;SDS011;5415;59.322;18.246;2023-01-26T06:21:06;9.90;;;7.90;;
10727;SDS011;5415;59.322;18.246;2023-01-26T06:23:34;11.87;;;7.80;;
10727;SDS011;5415;59.322;18.246;2023-01-26T06:26:04;12.67;;;8.00;;
10727;SDS011;5415;59.322;18.246;2023-01-26T06:28:31;13.10;;;7.27;;
10727;SDS011;5415;59.322;18.246;2023-01-26T06:31:00;11.83;;;7.33;;
10727;SDS011;5415;59.322;18.246;2023-01-26T06:33:30;10.33;;;7.20;;
10727;SDS011;5415;59.322;18.246;2023-01-26T06:36:02;12.73;;;7.53;;
10727;SDS011;5415;59.322;18.246;2023-01-26T06:38:30;11.77;;;7.33;;
10727;SDS011;5415;59.322;18.246;2023-01-26T06:40:58;10.77;;;6.53;;
10727;SDS011;5415;59.322;18.246;2023-01-26T06:43:30;12.88;;;8.70;;
10727;SDS011;5415;59.322;18.246;2023-01-26T06:45:58;12.67;;;7.40;;
10727;SDS011;5415;59.322;18.246;2023-01-26T06:48:32;8.43;;;6.93;;
10727;SDS011;5415;59.322;18.246;2023-01-26T06:51:05;9.83;;;6.63;;
10727;SDS011;5415;59.322;18.246;2023-01-26T06:54:08;12.30;;;6.87;;
10727;SDS011;5415;59.322;18.246;2023-01-26T06:56:36;11.77;;;6.53;;
10727;SDS011;5415;59.322;18.246;2023-01-26T06:59:12;9.30;;;6.13;;
10727;SDS011;5415;59.322;18.246;2023-01-26T07:01:41;10.07;;;6.27;;
10727;SDS011;5415;59.322;18.246;2023-01-26T07:04:11;9.97;;;6.30;;
10727;SDS011;5415;59.322;18.246;2023-01-26T07:06:39;10.67;;;6.53;;
10727;SDS011;5415;59.322;18.246;2023-01-26T07:09:07;7.27;;;5.10;;
10727;SDS011;5415;59.322;18.246;2023-01-26T07:11:35;9.73;;;5.50;;
10727;SDS011;5415;59.322;18.246;2023-01-26T07:14:03;7.67;;;5.37;;
10727;SDS011;5415;59.322;18.246;2023-01-26T07:16:32;7.23;;;5.50;;
10727;SDS011;5415;59.322;18.246;2023-01-26T07:19:00;9.30;;;5.60;;
10727;SDS011;5415;59.322;18.246;2023-01-26T07:21:30;7.40;;;5.50;;
10727;SDS011;5415;59.322;18.246;2023-01-26T07:23:59;8.80;;;5.10;;
10727;SDS011;5415;59.322;18.246;2023-01-26T07:26:26;6.97;;;5.10;;
10727;SDS011;5415;59.322;18.246;2023-01-26T07:28:53;6.77;;;5.70;;
10727;SDS011;5415;59.322;18.246;2023-01-26T07:31:21;8.10;;;6.13;;
10727;SDS011;5415;59.322;18.246;2023-01-26T07:33:52;8.80;;;6.50;;
10727;SDS011;5415;59.322;18.246;2023-01-26T07:36:20;8.90;;;6.83;;
10727;SDS011;5415;59.322;18.246;2023-01-26T07:38:47;10.53;;;7.20;;
10727;SDS011;5415;59.322;18.246;2023-01-26T07:41:15;10.57;;;7.43;;
10727;SDS011;5415;59.322;18.246;2023-01-26T07:43:43;10.47;;;7.03;;
10727;SDS011;5415;59.322;18.246;2023-01-26T07:46:10;8.27;;;6.03;;
10727;SDS011;5415;59.322;18.246;2023-01-26T07:48:38;9.17;;;6.10;;
10727;SDS011;5415;59.322;18.246;2023-01-26T07:51:08;6.30;;;5.10;;
10727;SDS011;5415;59.322;18.246;2023-01-26T07:53:38;6.47;;;4.87;;
10727;SDS011;5415;59.322;18.246;2023-01-26T07:56:08;6.47;;;4.03;;
10727;SDS011;5415;59.322;18.246;2023-01-26T07:58:36;6.67;;;3.90;;
10727;SDS011;5415;59.322;18.246;2023-01-26T08:01:08;4.50;;;3.43;;
10727;SDS011;5415;59.322;18.246;2023-01-26T08:03:37;3.10;;;2.80;;
10727;SDS011;5415;59.322;18.246;2023-01-26T08:06:05;3.77;;;2.60;;
10727;SDS011;5415;59.322;18.246;2023-01-26T08:08:36;2.40;;;2.20;;
10727;SDS011;5415;59.322;18.246;2023-01-26T08:11:05;3.13;;;2.07;;
10727;SDS011;5415;59.322;18.246;2023-01-26T08:13:36;5.27;;;1.83;;
10727;SDS011;5415;59.322;18.246;2023-01-26T08:16:05;2.00;;;1.70;;
10727;SDS011;5415;59.322;18.246;2023-01-26T08:18:36;2.57;;;1.33;;
10727;SDS011;5415;59.322;18.246;2023-01-26T08:21:09;1.40;;;1.30;;
10727;SDS011;5415;59.322;18.246;2023-01-26T08:23:39;1.63;;;1.20;;
10727;SDS011;5415;59.322;18.246;2023-01-26T08:26:10;2.13;;;1.20;;
10727;SDS011;5415;59.322;18.246;2023-01-26T08:28:40;2.60;;;1.10;;
10727;SDS011;5415;59.322;18.246;2023-01-26T08:31:19;1.17;;;1.07;;
10727;SDS011;5415;59.322;18.246;2023-01-26T08:33:54;2.03;;;0.90;;
10727;SDS011;5415;59.322;18.246;2023-01-26T08:36:29;1.37;;;0.97;;
10727;SDS011;5415;59.322;18.246;2023-01-26T08:39:00;0.87;;;0.83;;
10727;SDS011;5415;59.322;18.246;2023-01-26T08:41:43;1.60;;;1.20;;
10727;SDS011;5415;59.322;18.246;2023-01-26T08:44:26;0.87;;;0.87;;
10727;SDS011;5415;59.322;18.246;2023-01-26T08:47:01;1.43;;;0.80;;
10727;SDS011;5415;59.322;18.246;2023-01-26T08:50:07;1.60;;;1.00;;
10727;SDS011;5415;59.322;18.246;2023-01-26T08:52:40;2.53;;;0.80;;
10727;SDS011;5415;59.322;18.246;2023-01-26T08:55:08;2.20;;;1.00;;
10727;SDS011;5415;59.322;18.246;2023-01-26T08:57:35;0.90;;;0.90;;
10727;SDS011;5415;59.322;18.246;2023-01-26T09:00:15;1.47;;;0.90;;
10727;SDS011;5415;59.322;18.246;2023-01-26T09:02:44;0.70;;;0.70;;
10727;SDS011;5415;59.322;18.246;2023-01-26T09:05:13;1.03;;;0.90;;
10727;SDS011;5415;59.322;18.246;2023-01-26T09:11:00;1.73;;;0.70;;
10727;SDS011;5415;59.322;18.246;2023-01-26T09:13:31;0.63;;;0.63;;
10727;SDS011;5415;59.322;18.246;2023-01-26T09:16:03;0.60;;;0.60;;
10727;SDS011;5415;59.322;18.246;2023-01-26T09:18:30;0.60;;;0.60;;
10727;SDS011;5415;59.322;18.246;2023-01-26T09:21:02;0.80;;;0.80;;
10727;SDS011;5415;59.322;18.246;2023-01-26T09:23:30;0.70;;;0.70;;
10727;SDS011;5415;59.322;18.246;2023-01-26T09:26:00;0.87;;;0.87;;
10727;SDS011;5415;59.322;18.246;2023-01-26T09:28:29;1.43;;;0.60;;
10727;SDS011;5415;59.322;18.246;2023-01-26T09:31:01;1.20;;;1.10;;
10727;SDS011;5415;59.322;18.246;2023-01-26T09:33:29;1.20;;;0.60;;
10727;SDS011;5415;59.322;18.246;2023-01-26T09:36:01;0.60;;;0.60;;
10727;SDS011;5415;59.322;18.246;2023-01-26T09:38:29;0.93;;;0.80;;
10727;SDS011;5415;59.322;18.246;2023-01-26T09:40:59;1.13;;;0.60;;
10727;SDS011;5415;59.322;18.246;2023-01-26T09:43:50;0.90;;;0.60;;
10727;SDS011;5415;59.322;18.246;2023-01-26T09:46:41;0.77;;;0.50;;
10727;SDS011;5415;59.322;18.246;2023-01-26T09:52:46;1.73;;;0.70;;
10727;SDS011;5415;59.322;18.246;2023-01-26T09:55:24;0.93;;;0.50;;
10727;SDS011;5415;59.322;18.246;2023-01-26T10:04:32;0.80;;;0.70;;
10727;SDS011;5415;59.322;18.246;2023-01-26T10:07:16;1.40;;;0.70;;
10727;SDS011;5415;59.322;18.246;2023-01-26T10:09:55;1.10;;;0.70;;
10727;SDS011;5415;59.322;18.246;2023-01-26T10:15:18;0.80;;;0.60;;
10727;SDS011;5415;59.322;18.246;2023-01-26T10:18:39;1.63;;;0.70;;
10727;SDS011;5415;59.322;18.246;2023-01-26T10:21:16;0.63;;;0.50;;
10727;SDS011;5415;59.322;18.246;2023-01-26T10:23:47;0.53;;;0.53;;
10727;SDS011;5415;59.322;18.246;2023-01-26T10:26:34;0.60;;;0.60;;
10727;SDS011;5415;59.322;18.246;2023-01-26T10:29:13;1.50;;;0.63;;
10727;SDS011;5415;59.322;18.246;2023-01-26T10:32:22;0.70;;;0.70;;
10727;SDS011;5415;59.322;18.246;2023-01-26T10:34:49;0.93;;;0.60;;
10727;SDS011;5415;59.322;18.246;2023-01-26T10:37:21;0.97;;;0.50;;
10727;SDS011;5415;59.322;18.246;2023-01-26T10:40:01;1.23;;;0.67;;
10727;SDS011;5415;59.322;18.246;2023-01-26T10:42:37;0.67;;;0.60;;
10727;SDS011;5415;59.322;18.246;2023-01-26T10:45:22;3.77;;;0.80;;
10727;SDS011;5415;59.322;18.246;2023-01-26T10:48:08;0.70;;;0.60;;
10727;SDS011;5415;59.322;18.246;2023-01-26T10:50:45;1.03;;;0.70;;
10727;SDS011;5415;59.322;18.246;2023-01-26T10:53:21;0.60;;;0.60;;
10727;SDS011;5415;59.322;18.246;2023-01-26T10:55:57;2.17;;;1.00;;
10727;SDS011;5415;59.322;18.246;2023-01-26T10:58:43;1.03;;;0.60;;
10727;SDS011;5415;59.322;18.246;2023-01-26T11:01:14;0.70;;;0.63;;
10727;SDS011;5415;59.322;18.246;2023-01-26T11:04:03;0.60;;;0.60;;
10727;SDS011;5415;59.322;18.246;2023-01-26T11:06:32;0.77;;;0.70;;
10727;SDS011;5415;59.322;18.246;2023-01-26T11:09:16;1.33;;;0.60;;
10727;SDS011;5415;59.322;18.246;2023-01-26T11:11:56;3.27;;;0.93;;
10727;SDS011;5415;59.322;18.246;2023-01-26T11:14:30;1.77;;;1.07;;
10727;SDS011;5415;59.322;18.246;2023-01-26T11:17:00;1.30;;;0.90;;
10727;SDS011;5415;59.322;18.246;2023-01-26T11:22:24;1.20;;;0.60;;
10727;SDS011;5415;59.322;18.246;2023-01-26T11:25:06;2.10;;;0.70;;
10727;SDS011;5415;59.322;18.246;2023-01-26T11:27:43;1.27;;;0.57;;
10727;SDS011;5415;59.322;18.246;2023-01-26T11:30:29;0.80;;;0.77;;
10727;SDS011;5415;59.322;18.246;2023-01-26T11:33:28;1.30;;;0.73;;
10727;SDS011;5415;59.322;18.246;2023-01-26T11:36:02;2.37;;;0.80;;
10727;SDS011;5415;59.322;18.246;2023-01-26T11:38:38;2.73;;;0.77;;
10727;SDS011;5415;59.322;18.246;2023-01-26T11:44:09;6.00;;;0.90;;
10727;SDS011;5415;59.322;18.246;2023-01-26T11:46:53;1.13;;;0.70;;
10727;SDS011;5415;59.322;18.246;2023-01-26T11:49:34;2.33;;;1.27;;
10727;SDS011;5415;59.322;18.246;2023-01-26T11:52:40;2.13;;;1.00;;
10727;SDS011;5415;59.322;18.246;2023-01-26T11:55:22;1.93;;;0.90;;
10727;SDS011;5415;59.322;18.246;2023-01-26T11:58:01;2.27;;;0.97;;
10727;SDS011;5415;59.322;18.246;2023-01-26T12:00:44;1.63;;;0.93;;
10727;SDS011;5415;59.322;18.246;2023-01-26T12:03:18;2.00;;;0.80;;
10727;SDS011;5415;59.322;18.246;2023-01-26T12:05:54;3.53;;;1.07;;
10727;SDS011;5415;59.322;18.246;2023-01-26T12:08:27;5.63;;;1.37;;
10727;SDS011;5415;59.322;18.246;2023-01-26T12:11:03;3.13;;;0.97;;
10727;SDS011;5415;59.322;18.246;2023-01-26T12:13:51;2.83;;;1.03;;
10727;SDS011;5415;59.322;18.246;2023-01-26T12:16:38;3.90;;;0.80;;
10727;SDS011;5415;59.322;18.246;2023-01-26T12:19:14;23.93;;;2.77;;
10727;SDS011;5415;59.322;18.246;2023-01-26T12:21:50;2.37;;;0.90;;
10727;SDS011;5415;59.322;18.246;2023-01-26T12:24:26;3.87;;;0.90;;
10727;SDS011;5415;59.322;18.246;2023-01-26T12:27:01;1.30;;;0.80;;
10727;SDS011;5415;59.322;18.246;2023-01-26T12:29:36;1.63;;;0.80;;
10727;SDS011;5415;59.322;18.246;2023-01-26T12:32:09;1.97;;;0.70;;
10727;SDS011;5415;59.322;18.246;2023-01-26T12:34:39;2.10;;;1.00;;
10727;SDS011;5415;59.322;18.246;2023-01-26T12:37:14;2.77;;;0.70;;
10727;SDS011;5415;59.322;18.246;2023-01-26T12:40:04;5.20;;;1.03;;
10727;SDS011;5415;59.322;18.246;2023-01-26T12:42:41;6.07;;;1.13;;
10727;SDS011;5415;59.322;18.246;2023-01-26T12:45:19;4.10;;;1.07;;
10727;SDS011;5415;59.322;18.246;2023-01-26T12:47:50;2.77;;;0.97;;
10727;SDS011;5415;59.322;18.246;2023-01-26T12:50:23;2.73;;;1.03;;
10727;SDS011;5415;59.322;18.246;2023-01-26T12:52:55;2.10;;;1.00;;
10727;SDS011;5415;59.322;18.246;2023-01-26T12:55:28;1.90;;;0.80;;
10727;SDS011;5415;59.322;18.246;2023-01-26T12:58:00;2.60;;;1.13;;
10727;SDS011;5415;59.322;18.246;2023-01-26T13:00:31;1.23;;;0.73;;
10727;SDS011;5415;59.322;18.246;2023-01-26T13:03:02;3.00;;;0.83;;
10727;SDS011;5415;59.322;18.246;2023-01-26T13:05:53;1.10;;;0.77;;
10727;SDS011;5415;59.322;18.246;2023-01-26T13:08:38;5.10;;;1.20;;
10727;SDS011;5415;59.322;18.246;2023-01-26T13:14:33;2.50;;;0.77;;
10727;SDS011;5415;59.322;18.246;2023-01-26T13:26:19;3.23;;;0.80;;
10727;SDS011;5415;59.322;18.246;2023-01-26T13:31:57;2.13;;;0.90;;
10727;SDS011;5415;59.322;18.246;2023-01-26T13:34:29;2.70;;;1.00;;
10727;SDS011;5415;59.322;18.246;2023-01-26T13:37:09;4.93;;;1.00;;
10727;SDS011;5415;59.322;18.246;2023-01-26T13:39:43;2.17;;;0.77;;
10727;SDS011;5415;59.322;18.246;2023-01-26T13:42:15;1.67;;;0.70;;
10727;SDS011;5415;59.322;18.246;2023-01-26T13:44:50;1.43;;;0.93;;
10727;SDS011;5415;59.322;18.246;2023-01-26T13:47:23;1.13;;;0.80;;
10727;SDS011;5415;59.322;18.246;2023-01-26T13:50:07;2.93;;;1.10;;
10727;SDS011;5415;59.322;18.246;2023-01-26T13:52:48;3.63;;;1.00;;
10727;SDS011;5415;59.322;18.246;2023-01-26T13:55:20;3.47;;;0.80;;
10727;SDS011;5415;59.322;18.246;2023-01-26T14:00:38;3.50;;;0.90;;
10727;SDS011;5415;59.322;18.246;2023-01-26T14:03:16;3.47;;;1.07;;
10727;SDS011;5415;59.322;18.246;2023-01-26T14:05:51;5.57;;;0.90;;
10727;SDS011;5415;59.322;18.246;2023-01-26T14:08:21;1.80;;;0.70;;
10727;SDS011;5415;59.322;18.246;2023-01-26T14:10:49;2.47;;;0.90;;
10727;SDS011;5415;59.322;18.246;2023-01-26T14:13:19;2.47;;;0.80;;
10727;SDS011;5415;59.322;18.246;2023-01-26T14:15:59;1.30;;;0.93;;
10727;SDS011;5415;59.322;18.246;2023-01-26T14:18:28;2.73;;;0.70;;
10727;SDS011;5415;59.322;18.246;2023-01-26T14:21:05;1.43;;;0.70;;
10727;SDS011;5415;59.322;18.246;2023-01-26T14:23:44;4.87;;;1.17;;
10727;SDS011;5415;59.322;18.246;2023-01-26T14:26:15;3.57;;;1.43;;
10727;SDS011;5415;59.322;18.246;2023-01-26T14:28:45;5.13;;;1.00;;
10727;SDS011;5415;59.322;18.246;2023-01-26T14:31:14;2.80;;;1.47;;
10727;SDS011;5415;59.322;18.246;2023-01-26T14:33:46;8.77;;;1.30;;
10727;SDS011;5415;59.322;18.246;2023-01-26T14:36:19;4.20;;;0.97;;
10727;SDS011;5415;59.322;18.246;2023-01-26T14:38:47;10.00;;;1.13;;
10727;SDS011;5415;59.322;18.246;2023-01-26T14:41:19;2.73;;;1.00;;
10727;SDS011;5415;59.322;18.246;2023-01-26T14:43:49;3.73;;;0.97;;
10727;SDS011;5415;59.322;18.246;2023-01-26T14:46:21;2.73;;;0.97;;
10727;SDS011;5415;59.322;18.246;2023-01-26T14:48:54;2.60;;;0.90;;
10727;SDS011;5415;59.322;18.246;2023-01-26T14:51:26;1.87;;;0.80;;
10727;SDS011;5415;59.322;18.246;2023-01-26T14:53:56;2.40;;;0.80;;
10727;SDS011;5415;59.322;18.246;2023-01-26T14:56:30;2.53;;;1.00;;
10727;SDS011;5415;59.322;18.246;2023-01-26T14:59:00;1.93;;;0.80;;
10727;SDS011;5415;59.322;18.246;2023-01-26T15:01:29;3.50;;;1.17;;
10727;SDS011;5415;59.322;18.246;2023-01-26T15:03:58;4.27;;;0.93;;
10727;SDS011;5415;59.322;18.246;2023-01-26T15:06:30;2.90;;;0.97;;
10727;SDS011;5415;59.322;18.246;2023-01-26T15:08:59;4.03;;;1.10;;
10727;SDS011;5415;59.322;18.246;2023-01-26T15:11:33;3.37;;;0.83;;
10727;SDS011;5415;59.322;18.246;2023-01-26T15:14:25;2.60;;;0.97;;
10727;SDS011;5415;59.322;18.246;2023-01-26T15:16:59;3.80;;;1.07;;
10727;SDS011;5415;59.322;18.246;2023-01-26T15:19:36;1.70;;;0.60;;
10727;SDS011;5415;59.322;18.246;2023-01-26T15:22:19;2.90;;;0.90;;
10727;SDS011;5415;59.322;18.246;2023-01-26T15:24:58;1.67;;;0.77;;
10727;SDS011;5415;59.322;18.246;2023-01-26T15:27:34;1.97;;;0.60;;
10727;SDS011;5415;59.322;18.246;2023-01-26T15:30:02;1.67;;;0.57;;
10727;SDS011;5415;59.322;18.246;2023-01-26T15:32:36;2.43;;;0.90;;
10727;SDS011;5415;59.322;18.246;2023-01-26T15:35:06;2.40;;;0.80;;
10727;SDS011;5415;59.322;18.246;2023-01-26T15:37:45;2.43;;;0.80;;
10727;SDS011;5415;59.322;18.246;2023-01-26T15:40:12;4.30;;;1.30;;
10727;SDS011;5415;59.322;18.246;2023-01-26T15:42:41;1.27;;;0.70;;
10727;SDS011;5415;59.322;18.246;2023-01-26T15:45:14;2.07;;;0.80;;
10727;SDS011;5415;59.322;18.246;2023-01-26T15:47:49;3.07;;;0.90;;
10727;SDS011;5415;59.322;18.246;2023-01-26T15:50:17;1.93;;;1.10;;
10727;SDS011;5415;59.322;18.246;2023-01-26T15:52:46;3.03;;;0.90;;
10727;SDS011;5415;59.322;18.246;2023-01-26T15:55:17;5.57;;;1.00;;
10727;SDS011;5415;59.322;18.246;2023-01-26T15:57:47;1.73;;;0.87;;
10727;SDS011;5415;59.322;18.246;2023-01-26T16:00:15;3.93;;;1.20;;